sensor_id;sensor_type;location;lat;lon;timestamp;P1;durP1;ratioP1;P2;durP2;ratioP2
55007;SDS011;40902;45.116;21.296;2024-02-14T00:00:32;11.77;;;7.43;;
55007;SDS011;40902;45.116;21.296;2024-02-14T00:02:58;10.55;;;7.35;;
55007;SDS011;40902;45.116;21.296;2024-02-14T00:05:24;11.60;;;7.15;;
55007;SDS011;40902;45.116;21.296;2024-02-14T00:07:51;9.43;;;6.93;;
55007;SDS011;40902;45.116;21.296;2024-02-14T00:10:17;10.65;;;6.70;;
55007;SDS011;40902;45.116;21.296;2024-02-14T00:12:42;9.10;;;6.25;;
55007;SDS011;40902;45.116;21.296;2024-02-14T00:15:09;8.88;;;6.75;;
55007;SDS011;40902;45.116;21.296;2024-02-14T00:17:35;12.38;;;7.32;;
55007;SDS011;40902;45.116;21.296;2024-02-14T00:20:02;10.43;;;6.53;;
55007;SDS011;40902;45.116;21.296;2024-02-14T00:22:29;11.20;;;7.25;;
55007;SDS011;40902;45.116;21.296;2024-02-14T00:24:55;10.77;;;6.72;;
55007;SDS011;40902;45.116;21.296;2024-02-14T00:27:20;12.02;;;7.25;;
55007;SDS011;40902;45.116;21.296;2024-02-14T00:29:46;11.00;;;7.80;;
55007;SDS011;40902;45.116;21.296;2024-02-14T00:32:13;10.23;;;7.10;;
55007;SDS011;40902;45.116;21.296;2024-02-14T00:34:39;10.75;;;7.45;;
55007;SDS011;40902;45.116;21.296;2024-02-14T00:37:05;10.73;;;7.03;;
55007;SDS011;40902;45.116;21.296;2024-02-14T00:39:30;11.52;;;8.20;;
55007;SDS011;40902;45.116;21.296;2024-02-14T00:41:56;12.07;;;7.97;;
55007;SDS011;40902;45.116;21.296;2024-02-14T00:44:22;13.40;;;8.13;;
55007;SDS011;40902;45.116;21.296;2024-02-14T00:46:48;10.32;;;6.78;;
55007;SDS011;40902;45.116;21.296;2024-02-14T00:49:14;12.02;;;8.23;;
55007;SDS011;40902;45.116;21.296;2024-02-14T00:51:40;11.05;;;7.57;;
55007;SDS011;40902;45.116;21.296;2024-02-14T00:54:06;9.95;;;7.30;;
55007;SDS011;40902;45.116;21.296;2024-02-14T00:56:33;9.55;;;7.13;;
55007;SDS011;40902;45.116;21.296;2024-02-14T00:58:59;9.57;;;7.30;;
55007;SDS011;40902;45.116;21.296;2024-02-14T01:01:25;10.82;;;7.50;;
55007;SDS011;40902;45.116;21.296;2024-02-14T01:03:51;10.90;;;7.85;;
55007;SDS011;40902;45.116;21.296;2024-02-14T01:06:17;10.60;;;6.93;;
55007;SDS011;40902;45.116;21.296;2024-02-14T01:08:43;9.10;;;6.40;;
55007;SDS011;40902;45.116;21.296;2024-02-14T01:11:09;11.43;;;8.05;;
55007;SDS011;40902;45.116;21.296;2024-02-14T01:13:35;11.75;;;7.63;;
55007;SDS011;40902;45.116;21.296;2024-02-14T01:16:02;10.70;;;7.45;;
55007;SDS011;40902;45.116;21.296;2024-02-14T01:18:29;10.73;;;7.85;;
55007;SDS011;40902;45.116;21.296;2024-02-14T01:20:55;8.95;;;6.53;;
55007;SDS011;40902;45.116;21.296;2024-02-14T01:23:20;15.07;;;7.72;;
55007;SDS011;40902;45.116;21.296;2024-02-14T01:25:46;10.52;;;7.65;;
55007;SDS011;40902;45.116;21.296;2024-02-14T01:28:12;11.18;;;7.70;;
55007;SDS011;40902;45.116;21.296;2024-02-14T01:30:38;12.40;;;7.65;;
55007;SDS011;40902;45.116;21.296;2024-02-14T01:33:04;10.77;;;7.28;;
55007;SDS011;40902;45.116;21.296;2024-02-14T01:35:30;10.90;;;7.85;;
55007;SDS011;40902;45.116;21.296;2024-02-14T01:37:55;11.40;;;7.38;;
55007;SDS011;40902;45.116;21.296;2024-02-14T01:40:22;10.98;;;7.38;;
55007;SDS011;40902;45.116;21.296;2024-02-14T01:42:48;11.25;;;6.78;;
55007;SDS011;40902;45.116;21.296;2024-02-14T01:45:14;10.52;;;7.38;;
55007;SDS011;40902;45.116;21.296;2024-02-14T01:47:40;9.57;;;7.05;;
55007;SDS011;40902;45.116;21.296;2024-02-14T01:50:07;10.25;;;7.40;;
55007;SDS011;40902;45.116;21.296;2024-02-14T01:52:37;9.15;;;7.07;;
55007;SDS011;40902;45.116;21.296;2024-02-14T01:55:05;10.93;;;7.65;;
55007;SDS011;40902;45.116;21.296;2024-02-14T01:57:33;10.35;;;7.55;;
55007;SDS011;40902;45.116;21.296;2024-02-14T02:00:01;10.77;;;7.35;;
55007;SDS011;40902;45.116;21.296;2024-02-14T02:02:36;10.00;;;7.40;;
55007;SDS011;40902;45.116;21.296;2024-02-14T02:05:04;9.30;;;6.97;;
55007;SDS011;40902;45.116;21.296;2024-02-14T02:07:31;10.70;;;7.38;;
55007;SDS011;40902;45.116;21.296;2024-02-14T02:09:57;11.50;;;7.57;;
55007;SDS011;40902;45.116;21.296;2024-02-14T02:12:23;9.85;;;7.10;;
55007;SDS011;40902;45.116;21.296;2024-02-14T02:14:52;11.27;;;7.97;;
55007;SDS011;40902;45.116;21.296;2024-02-14T02:17:20;9.25;;;7.25;;
55007;SDS011;40902;45.116;21.296;2024-02-14T02:19:46;11.75;;;7.75;;
55007;SDS011;40902;45.116;21.296;2024-02-14T02:22:12;9.93;;;7.05;;
55007;SDS011;40902;45.116;21.296;2024-02-14T02:24:38;9.73;;;7.28;;
55007;SDS011;40902;45.116;21.296;2024-02-14T02:27:04;12.23;;;7.70;;
55007;SDS011;40902;45.116;21.296;2024-02-14T02:29:30;11.60;;;7.75;;
55007;SDS011;40902;45.116;21.296;2024-02-14T02:31:57;10.73;;;7.20;;
55007;SDS011;40902;45.116;21.296;2024-02-14T02:34:23;11.07;;;7.95;;
55007;SDS011;40902;45.116;21.296;2024-02-14T02:36:49;11.90;;;7.50;;
55007;SDS011;40902;45.116;21.296;2024-02-14T02:39:16;10.27;;;7.95;;
55007;SDS011;40902;45.116;21.296;2024-02-14T02:41:42;11.23;;;7.15;;
55007;SDS011;40902;45.116;21.296;2024-02-14T02:44:07;11.48;;;7.97;;
55007;SDS011;40902;45.116;21.296;2024-02-14T02:46:33;10.32;;;7.50;;
55007;SDS011;40902;45.116;21.296;2024-02-14T02:48:59;10.63;;;7.20;;
55007;SDS011;40902;45.116;21.296;2024-02-14T02:51:25;9.70;;;7.20;;
55007;SDS011;40902;45.116;21.296;2024-02-14T02:53:52;12.07;;;7.85;;
55007;SDS011;40902;45.116;21.296;2024-02-14T02:56:19;10.85;;;7.60;;
55007;SDS011;40902;45.116;21.296;2024-02-14T02:58:47;13.52;;;8.02;;
55007;SDS011;40902;45.116;21.296;2024-02-14T03:01:13;10.93;;;7.75;;
55007;SDS011;40902;45.116;21.296;2024-02-14T03:03:39;11.25;;;7.45;;
55007;SDS011;40902;45.116;21.296;2024-02-14T03:06:06;11.40;;;7.95;;
55007;SDS011;40902;45.116;21.296;2024-02-14T03:08:33;10.95;;;7.88;;
55007;SDS011;40902;45.116;21.296;2024-02-14T03:11:05;10.90;;;7.80;;
55007;SDS011;40902;45.116;21.296;2024-02-14T03:13:31;12.30;;;8.13;;
55007;SDS011;40902;45.116;21.296;2024-02-14T03:15:57;11.07;;;7.70;;
55007;SDS011;40902;45.116;21.296;2024-02-14T03:18:23;10.68;;;7.10;;
55007;SDS011;40902;45.116;21.296;2024-02-14T03:20:49;11.60;;;7.32;;
55007;SDS011;40902;45.116;21.296;2024-02-14T03:23:16;11.52;;;7.75;;
55007;SDS011;40902;45.116;21.296;2024-02-14T03:25:41;10.23;;;7.22;;
55007;SDS011;40902;45.116;21.296;2024-02-14T03:28:07;10.25;;;7.93;;
55007;SDS011;40902;45.116;21.296;2024-02-14T03:30:36;11.65;;;7.15;;
55007;SDS011;40902;45.116;21.296;2024-02-14T03:33:04;10.40;;;7.50;;
55007;SDS011;40902;45.116;21.296;2024-02-14T03:35:31;11.07;;;7.93;;
55007;SDS011;40902;45.116;21.296;2024-02-14T03:37:57;10.70;;;7.68;;
55007;SDS011;40902;45.116;21.296;2024-02-14T03:40:22;11.23;;;7.50;;
55007;SDS011;40902;45.116;21.296;2024-02-14T03:42:49;11.85;;;7.97;;
55007;SDS011;40902;45.116;21.296;2024-02-14T03:45:14;11.90;;;7.72;;
55007;SDS011;40902;45.116;21.296;2024-02-14T03:47:40;11.93;;;8.13;;
55007;SDS011;40902;45.116;21.296;2024-02-14T03:50:07;11.57;;;7.82;;
55007;SDS011;40902;45.116;21.296;2024-02-14T03:52:33;11.07;;;7.45;;
55007;SDS011;40902;45.116;21.296;2024-02-14T03:54:59;12.75;;;7.85;;
55007;SDS011;40902;45.116;21.296;2024-02-14T03:57:26;11.35;;;8.45;;
55007;SDS011;40902;45.116;21.296;2024-02-14T03:59:53;11.68;;;8.48;;
55007;SDS011;40902;45.116;21.296;2024-02-14T04:02:20;11.63;;;8.40;;
55007;SDS011;40902;45.116;21.296;2024-02-14T04:04:48;13.25;;;7.93;;
55007;SDS011;40902;45.116;21.296;2024-02-14T04:07:14;13.07;;;8.32;;
55007;SDS011;40902;45.116;21.296;2024-02-14T04:09:39;11.50;;;8.10;;
55007;SDS011;40902;45.116;21.296;2024-02-14T04:12:05;10.60;;;7.80;;
55007;SDS011;40902;45.116;21.296;2024-02-14T04:14:31;12.05;;;8.20;;
55007;SDS011;40902;45.116;21.296;2024-02-14T04:16:57;13.00;;;8.57;;
55007;SDS011;40902;45.116;21.296;2024-02-14T04:19:23;15.25;;;8.32;;
55007;SDS011;40902;45.116;21.296;2024-02-14T04:21:49;13.70;;;8.77;;
55007;SDS011;40902;45.116;21.296;2024-02-14T04:24:15;13.00;;;9.32;;
55007;SDS011;40902;45.116;21.296;2024-02-14T04:26:41;13.32;;;9.00;;
55007;SDS011;40902;45.116;21.296;2024-02-14T04:29:07;13.25;;;8.85;;
55007;SDS011;40902;45.116;21.296;2024-02-14T04:31:33;17.08;;;9.40;;
55007;SDS011;40902;45.116;21.296;2024-02-14T04:33:59;13.02;;;8.80;;
55007;SDS011;40902;45.116;21.296;2024-02-14T04:36:25;14.80;;;9.05;;
55007;SDS011;40902;45.116;21.296;2024-02-14T04:38:52;13.25;;;9.13;;
55007;SDS011;40902;45.116;21.296;2024-02-14T04:41:18;12.07;;;8.50;;
55007;SDS011;40902;45.116;21.296;2024-02-14T04:43:44;13.20;;;8.23;;
55007;SDS011;40902;45.116;21.296;2024-02-14T04:46:10;12.25;;;8.40;;
55007;SDS011;40902;45.116;21.296;2024-02-14T04:48:36;13.55;;;7.68;;
55007;SDS011;40902;45.116;21.296;2024-02-14T04:51:02;14.25;;;8.85;;
55007;SDS011;40902;45.116;21.296;2024-02-14T04:53:32;11.82;;;7.68;;
55007;SDS011;40902;45.116;21.296;2024-02-14T04:55:58;11.50;;;8.23;;
55007;SDS011;40902;45.116;21.296;2024-02-14T04:58:24;11.93;;;8.40;;
55007;SDS011;40902;45.116;21.296;2024-02-14T05:00:51;11.43;;;8.68;;
55007;SDS011;40902;45.116;21.296;2024-02-14T05:03:17;13.93;;;9.27;;
55007;SDS011;40902;45.116;21.296;2024-02-14T05:05:43;11.25;;;7.95;;
55007;SDS011;40902;45.116;21.296;2024-02-14T05:08:09;12.30;;;8.50;;
55007;SDS011;40902;45.116;21.296;2024-02-14T05:10:35;11.18;;;8.30;;
55007;SDS011;40902;45.116;21.296;2024-02-14T05:13:01;11.77;;;8.43;;
55007;SDS011;40902;45.116;21.296;2024-02-14T05:15:27;13.98;;;8.98;;
55007;SDS011;40902;45.116;21.296;2024-02-14T05:17:53;14.15;;;9.38;;
55007;SDS011;40902;45.116;21.296;2024-02-14T05:20:19;12.52;;;9.13;;
55007;SDS011;40902;45.116;21.296;2024-02-14T05:22:44;11.88;;;8.10;;
55007;SDS011;40902;45.116;21.296;2024-02-14T05:25:10;11.38;;;8.50;;
55007;SDS011;40902;45.116;21.296;2024-02-14T05:27:36;16.45;;;9.98;;
55007;SDS011;40902;45.116;21.296;2024-02-14T05:30:02;29.75;;;18.45;;
55007;SDS011;40902;45.116;21.296;2024-02-14T05:32:30;31.80;;;19.63;;
55007;SDS011;40902;45.116;21.296;2024-02-14T05:34:57;45.13;;;26.25;;
55007;SDS011;40902;45.116;21.296;2024-02-14T05:37:23;35.42;;;22.77;;
55007;SDS011;40902;45.116;21.296;2024-02-14T05:39:49;37.05;;;24.88;;
55007;SDS011;40902;45.116;21.296;2024-02-14T05:42:15;32.75;;;20.58;;
55007;SDS011;40902;45.116;21.296;2024-02-14T05:44:43;20.40;;;12.60;;
55007;SDS011;40902;45.116;21.296;2024-02-14T05:47:09;13.15;;;9.15;;
55007;SDS011;40902;45.116;21.296;2024-02-14T05:49:37;14.70;;;9.25;;
55007;SDS011;40902;45.116;21.296;2024-02-14T05:52:07;12.35;;;9.02;;
55007;SDS011;40902;45.116;21.296;2024-02-14T05:54:33;13.23;;;8.35;;
55007;SDS011;40902;45.116;21.296;2024-02-14T05:56:59;12.15;;;8.65;;
55007;SDS011;40902;45.116;21.296;2024-02-14T05:59:27;15.73;;;10.15;;
55007;SDS011;40902;45.116;21.296;2024-02-14T06:01:53;15.63;;;10.77;;
55007;SDS011;40902;45.116;21.296;2024-02-14T06:04:19;15.63;;;10.30;;
55007;SDS011;40902;45.116;21.296;2024-02-14T06:06:44;15.13;;;9.85;;
55007;SDS011;40902;45.116;21.296;2024-02-14T06:09:10;14.95;;;9.80;;
55007;SDS011;40902;45.116;21.296;2024-02-14T06:11:36;14.93;;;10.38;;
55007;SDS011;40902;45.116;21.296;2024-02-14T06:14:04;13.02;;;9.60;;
55007;SDS011;40902;45.116;21.296;2024-02-14T06:16:31;13.55;;;9.73;;
55007;SDS011;40902;45.116;21.296;2024-02-14T06:18:58;13.20;;;9.13;;
55007;SDS011;40902;45.116;21.296;2024-02-14T06:21:24;19.95;;;14.13;;
55007;SDS011;40902;45.116;21.296;2024-02-14T06:23:52;13.93;;;11.10;;
55007;SDS011;40902;45.116;21.296;2024-02-14T06:26:18;16.73;;;12.02;;
55007;SDS011;40902;45.116;21.296;2024-02-14T06:28:44;17.52;;;12.30;;
55007;SDS011;40902;45.116;21.296;2024-02-14T06:31:10;13.52;;;10.02;;
55007;SDS011;40902;45.116;21.296;2024-02-14T06:33:36;17.90;;;11.75;;
55007;SDS011;40902;45.116;21.296;2024-02-14T06:36:02;29.88;;;22.17;;
55007;SDS011;40902;45.116;21.296;2024-02-14T06:38:28;26.10;;;18.85;;
55007;SDS011;40902;45.116;21.296;2024-02-14T06:40:55;22.08;;;16.08;;
55007;SDS011;40902;45.116;21.296;2024-02-14T06:43:21;21.67;;;15.45;;
55007;SDS011;40902;45.116;21.296;2024-02-14T06:45:47;21.00;;;13.43;;
55007;SDS011;40902;45.116;21.296;2024-02-14T06:48:13;38.72;;;17.02;;
55007;SDS011;40902;45.116;21.296;2024-02-14T06:50:39;128.88;;;47.75;;
55007;SDS011;40902;45.116;21.296;2024-02-14T06:53:04;120.10;;;46.22;;
55007;SDS011;40902;45.116;21.296;2024-02-14T06:55:31;65.18;;;28.52;;
55007;SDS011;40902;45.116;21.296;2024-02-14T06:57:57;47.88;;;24.17;;
55007;SDS011;40902;45.116;21.296;2024-02-14T07:00:26;29.65;;;16.25;;
55007;SDS011;40902;45.116;21.296;2024-02-14T07:02:53;28.42;;;15.55;;
55007;SDS011;40902;45.116;21.296;2024-02-14T07:05:19;18.98;;;12.20;;
55007;SDS011;40902;45.116;21.296;2024-02-14T07:07:45;16.42;;;11.65;;
55007;SDS011;40902;45.116;21.296;2024-02-14T07:10:10;18.20;;;10.82;;
55007;SDS011;40902;45.116;21.296;2024-02-14T07:12:36;16.38;;;12.35;;
55007;SDS011;40902;45.116;21.296;2024-02-14T07:15:03;17.27;;;12.10;;
55007;SDS011;40902;45.116;21.296;2024-02-14T07:17:30;20.05;;;13.30;;
55007;SDS011;40902;45.116;21.296;2024-02-14T07:19:56;16.00;;;10.65;;
55007;SDS011;40902;45.116;21.296;2024-02-14T07:22:22;17.48;;;10.63;;
55007;SDS011;40902;45.116;21.296;2024-02-14T07:24:47;13.07;;;9.02;;
55007;SDS011;40902;45.116;21.296;2024-02-14T07:27:14;13.35;;;9.35;;
55007;SDS011;40902;45.116;21.296;2024-02-14T07:29:41;13.57;;;9.23;;
55007;SDS011;40902;45.116;21.296;2024-02-14T07:32:07;15.20;;;10.00;;
55007;SDS011;40902;45.116;21.296;2024-02-14T07:34:33;12.02;;;8.48;;
55007;SDS011;40902;45.116;21.296;2024-02-14T07:36:58;13.10;;;9.73;;
55007;SDS011;40902;45.116;21.296;2024-02-14T07:39:24;14.13;;;8.90;;
55007;SDS011;40902;45.116;21.296;2024-02-14T07:41:50;16.23;;;10.10;;
55007;SDS011;40902;45.116;21.296;2024-02-14T07:44:17;14.45;;;10.23;;
55007;SDS011;40902;45.116;21.296;2024-02-14T07:46:43;12.55;;;9.18;;
55007;SDS011;40902;45.116;21.296;2024-02-14T07:49:08;14.52;;;9.52;;
55007;SDS011;40902;45.116;21.296;2024-02-14T07:51:35;16.15;;;10.52;;
55007;SDS011;40902;45.116;21.296;2024-02-14T07:54:04;13.35;;;10.20;;
55007;SDS011;40902;45.116;21.296;2024-02-14T07:56:30;15.48;;;9.85;;
55007;SDS011;40902;45.116;21.296;2024-02-14T07:58:56;14.13;;;10.07;;
55007;SDS011;40902;45.116;21.296;2024-02-14T08:01:23;15.18;;;10.43;;
55007;SDS011;40902;45.116;21.296;2024-02-14T08:03:49;13.90;;;10.40;;
55007;SDS011;40902;45.116;21.296;2024-02-14T08:06:14;15.60;;;10.48;;
55007;SDS011;40902;45.116;21.296;2024-02-14T08:08:40;13.18;;;9.38;;
55007;SDS011;40902;45.116;21.296;2024-02-14T08:11:06;15.05;;;9.80;;
55007;SDS011;40902;45.116;21.296;2024-02-14T08:13:32;12.80;;;9.18;;
55007;SDS011;40902;45.116;21.296;2024-02-14T08:15:59;13.60;;;9.57;;
55007;SDS011;40902;45.116;21.296;2024-02-14T08:18:25;17.17;;;9.73;;
55007;SDS011;40902;45.116;21.296;2024-02-14T08:20:52;19.60;;;14.40;;
55007;SDS011;40902;45.116;21.296;2024-02-14T08:23:18;38.90;;;25.75;;
55007;SDS011;40902;45.116;21.296;2024-02-14T08:25:45;16.52;;;11.82;;
55007;SDS011;40902;45.116;21.296;2024-02-14T08:28:11;12.18;;;9.48;;
55007;SDS011;40902;45.116;21.296;2024-02-14T08:30:37;14.38;;;10.23;;
55007;SDS011;40902;45.116;21.296;2024-02-14T08:33:03;13.98;;;9.48;;
55007;SDS011;40902;45.116;21.296;2024-02-14T08:35:29;13.00;;;8.95;;
55007;SDS011;40902;45.116;21.296;2024-02-14T08:37:55;15.05;;;10.57;;
55007;SDS011;40902;45.116;21.296;2024-02-14T08:40:20;43.05;;;30.40;;
55007;SDS011;40902;45.116;21.296;2024-02-14T08:42:46;51.22;;;38.35;;
55007;SDS011;40902;45.116;21.296;2024-02-14T08:45:12;17.25;;;12.38;;
55007;SDS011;40902;45.116;21.296;2024-02-14T08:47:38;13.82;;;10.40;;
55007;SDS011;40902;45.116;21.296;2024-02-14T08:50:04;14.50;;;10.38;;
55007;SDS011;40902;45.116;21.296;2024-02-14T08:52:30;13.85;;;10.48;;
55007;SDS011;40902;45.116;21.296;2024-02-14T08:54:57;16.33;;;11.10;;
55007;SDS011;40902;45.116;21.296;2024-02-14T08:57:23;14.15;;;9.60;;
55007;SDS011;40902;45.116;21.296;2024-02-14T08:59:49;16.08;;;10.35;;
55007;SDS011;40902;45.116;21.296;2024-02-14T09:02:15;14.13;;;10.40;;
55007;SDS011;40902;45.116;21.296;2024-02-14T09:04:42;16.92;;;11.00;;
55007;SDS011;40902;45.116;21.296;2024-02-14T09:07:08;17.83;;;12.35;;
55007;SDS011;40902;45.116;21.296;2024-02-14T09:09:34;15.77;;;11.02;;
55007;SDS011;40902;45.116;21.296;2024-02-14T09:12:01;15.95;;;11.15;;
55007;SDS011;40902;45.116;21.296;2024-02-14T09:14:30;13.18;;;10.30;;
55007;SDS011;40902;45.116;21.296;2024-02-14T09:16:56;13.30;;;10.35;;
55007;SDS011;40902;45.116;21.296;2024-02-14T09:19:23;14.85;;;10.45;;
55007;SDS011;40902;45.116;21.296;2024-02-14T09:21:50;17.30;;;11.02;;
55007;SDS011;40902;45.116;21.296;2024-02-14T09:24:16;15.50;;;11.18;;
55007;SDS011;40902;45.116;21.296;2024-02-14T09:26:41;17.38;;;11.95;;
55007;SDS011;40902;45.116;21.296;2024-02-14T09:29:08;16.40;;;11.65;;
55007;SDS011;40902;45.116;21.296;2024-02-14T09:31:36;14.35;;;10.35;;
55007;SDS011;40902;45.116;21.296;2024-02-14T09:34:02;17.60;;;10.05;;
55007;SDS011;40902;45.116;21.296;2024-02-14T09:36:28;15.60;;;10.75;;
55007;SDS011;40902;45.116;21.296;2024-02-14T09:38:57;12.30;;;10.05;;
55007;SDS011;40902;45.116;21.296;2024-02-14T09:41:25;15.55;;;10.10;;
55007;SDS011;40902;45.116;21.296;2024-02-14T09:43:55;13.13;;;10.07;;
55007;SDS011;40902;45.116;21.296;2024-02-14T09:46:21;13.43;;;9.90;;
55007;SDS011;40902;45.116;21.296;2024-02-14T09:48:52;13.85;;;9.40;;
55007;SDS011;40902;45.116;21.296;2024-02-14T09:51:19;12.88;;;9.77;;
55007;SDS011;40902;45.116;21.296;2024-02-14T09:53:46;17.23;;;10.77;;
55007;SDS011;40902;45.116;21.296;2024-02-14T09:56:13;16.27;;;11.10;;
55007;SDS011;40902;45.116;21.296;2024-02-14T09:58:42;15.27;;;10.80;;
55007;SDS011;40902;45.116;21.296;2024-02-14T10:01:09;17.40;;;11.45;;
55007;SDS011;40902;45.116;21.296;2024-02-14T10:03:34;11.88;;;9.88;;
55007;SDS011;40902;45.116;21.296;2024-02-14T10:06:01;16.05;;;11.10;;
55007;SDS011;40902;45.116;21.296;2024-02-14T10:08:27;15.13;;;10.40;;
55007;SDS011;40902;45.116;21.296;2024-02-14T10:10:56;15.40;;;10.98;;
55007;SDS011;40902;45.116;21.296;2024-02-14T10:13:23;16.17;;;11.57;;
55007;SDS011;40902;45.116;21.296;2024-02-14T10:15:52;16.90;;;11.65;;
55007;SDS011;40902;45.116;21.296;2024-02-14T10:18:19;13.85;;;10.48;;
55007;SDS011;40902;45.116;21.296;2024-02-14T10:20:56;16.85;;;11.02;;
55007;SDS011;40902;45.116;21.296;2024-02-14T10:23:22;13.60;;;10.48;;
55007;SDS011;40902;45.116;21.296;2024-02-14T10:25:49;17.25;;;10.80;;
55007;SDS011;40902;45.116;21.296;2024-02-14T10:28:18;13.75;;;10.40;;
55007;SDS011;40902;45.116;21.296;2024-02-14T10:30:46;15.00;;;10.38;;
55007;SDS011;40902;45.116;21.296;2024-02-14T10:33:14;13.25;;;10.30;;
55007;SDS011;40902;45.116;21.296;2024-02-14T10:35:44;15.30;;;10.25;;
55007;SDS011;40902;45.116;21.296;2024-02-14T10:38:10;16.27;;;9.85;;
55007;SDS011;40902;45.116;21.296;2024-02-14T10:40:37;13.38;;;9.32;;
55007;SDS011;40902;45.116;21.296;2024-02-14T10:43:07;15.02;;;10.50;;
55007;SDS011;40902;45.116;21.296;2024-02-14T10:45:34;13.43;;;9.27;;
55007;SDS011;40902;45.116;21.296;2024-02-14T10:48:04;15.65;;;9.85;;
55007;SDS011;40902;45.116;21.296;2024-02-14T10:50:34;13.18;;;9.68;;
55007;SDS011;40902;45.116;21.296;2024-02-14T10:53:03;12.43;;;9.15;;
55007;SDS011;40902;45.116;21.296;2024-02-14T10:55:31;10.82;;;8.45;;
55007;SDS011;40902;45.116;21.296;2024-02-14T10:57:59;15.73;;;9.13;;
55007;SDS011;40902;45.116;21.296;2024-02-14T11:00:26;14.40;;;8.52;;
55007;SDS011;40902;45.116;21.296;2024-02-14T11:02:53;10.95;;;7.50;;
55007;SDS011;40902;45.116;21.296;2024-02-14T11:05:19;9.82;;;7.20;;
55007;SDS011;40902;45.116;21.296;2024-02-14T11:07:49;10.43;;;7.53;;
55007;SDS011;40902;45.116;21.296;2024-02-14T11:10:19;9.82;;;7.43;;
55007;SDS011;40902;45.116;21.296;2024-02-14T11:12:46;12.18;;;7.07;;
55007;SDS011;40902;45.116;21.296;2024-02-14T11:17:44;9.30;;;6.47;;
55007;SDS011;40902;45.116;21.296;2024-02-14T11:20:20;10.80;;;7.20;;
55007;SDS011;40902;45.116;21.296;2024-02-14T11:25:36;11.80;;;7.15;;
55007;SDS011;40902;45.116;21.296;2024-02-14T11:28:12;11.20;;;6.93;;
55007;SDS011;40902;45.116;21.296;2024-02-14T11:30:45;13.05;;;7.10;;
55007;SDS011;40902;45.116;21.296;2024-02-14T11:33:17;11.98;;;7.07;;
55007;SDS011;40902;45.116;21.296;2024-02-14T11:35:46;10.57;;;7.35;;
55007;SDS011;40902;45.116;21.296;2024-02-14T11:38:15;9.15;;;6.93;;
55007;SDS011;40902;45.116;21.296;2024-02-14T11:40:41;9.43;;;6.97;;
55007;SDS011;40902;45.116;21.296;2024-02-14T11:43:13;11.20;;;7.82;;
55007;SDS011;40902;45.116;21.296;2024-02-14T11:45:42;12.38;;;8.05;;
55007;SDS011;40902;45.116;21.296;2024-02-14T11:48:13;10.80;;;6.88;;
55007;SDS011;40902;45.116;21.296;2024-02-14T11:50:40;11.90;;;8.32;;
55007;SDS011;40902;45.116;21.296;2024-02-14T11:53:08;8.60;;;6.88;;
55007;SDS011;40902;45.116;21.296;2024-02-14T11:55:39;9.65;;;6.68;;
55007;SDS011;40902;45.116;21.296;2024-02-14T11:58:08;8.30;;;6.90;;
55007;SDS011;40902;45.116;21.296;2024-02-14T12:00:42;8.37;;;6.60;;
55007;SDS011;40902;45.116;21.296;2024-02-14T12:03:21;10.48;;;7.38;;
55007;SDS011;40902;45.116;21.296;2024-02-14T12:05:51;9.95;;;6.88;;
55007;SDS011;40902;45.116;21.296;2024-02-14T12:08:17;11.63;;;7.43;;
55007;SDS011;40902;45.116;21.296;2024-02-14T12:10:44;10.27;;;7.55;;
55007;SDS011;40902;45.116;21.296;2024-02-14T12:13:15;13.23;;;8.52;;
55007;SDS011;40902;45.116;21.296;2024-02-14T12:15:46;13.20;;;8.70;;
55007;SDS011;40902;45.116;21.296;2024-02-14T12:18:13;13.13;;;8.32;;
55007;SDS011;40902;45.116;21.296;2024-02-14T12:20:41;13.68;;;9.43;;
55007;SDS011;40902;45.116;21.296;2024-02-14T12:23:13;11.70;;;7.75;;
55007;SDS011;40902;45.116;21.296;2024-02-14T12:25:47;12.50;;;9.27;;
55007;SDS011;40902;45.116;21.296;2024-02-14T12:28:16;11.27;;;8.18;;
55007;SDS011;40902;45.116;21.296;2024-02-14T12:33:14;11.73;;;8.05;;
55007;SDS011;40902;45.116;21.296;2024-02-14T12:35:44;11.18;;;7.93;;
55007;SDS011;40902;45.116;21.296;2024-02-14T12:38:11;12.85;;;8.85;;
55007;SDS011;40902;45.116;21.296;2024-02-14T12:40:37;13.55;;;8.32;;
55007;SDS011;40902;45.116;21.296;2024-02-14T12:43:06;12.70;;;8.13;;
55007;SDS011;40902;45.116;21.296;2024-02-14T12:45:32;12.88;;;8.18;;
55007;SDS011;40902;45.116;21.296;2024-02-14T12:47:58;11.85;;;8.02;;
55007;SDS011;40902;45.116;21.296;2024-02-14T12:50:25;11.65;;;7.40;;
55007;SDS011;40902;45.116;21.296;2024-02-14T12:52:51;16.40;;;10.02;;
55007;SDS011;40902;45.116;21.296;2024-02-14T12:55:16;12.05;;;8.15;;
55007;SDS011;40902;45.116;21.296;2024-02-14T12:57:43;12.50;;;7.78;;
55007;SDS011;40902;45.116;21.296;2024-02-14T13:00:10;11.98;;;7.97;;
55007;SDS011;40902;45.116;21.296;2024-02-14T13:02:36;13.55;;;8.27;;
55007;SDS011;40902;45.116;21.296;2024-02-14T13:05:03;11.05;;;7.88;;
55007;SDS011;40902;45.116;21.296;2024-02-14T13:07:30;11.82;;;7.25;;
55007;SDS011;40902;45.116;21.296;2024-02-14T13:09:56;10.18;;;7.03;;
55007;SDS011;40902;45.116;21.296;2024-02-14T13:12:22;10.60;;;7.38;;
55007;SDS011;40902;45.116;21.296;2024-02-14T13:14:48;10.65;;;7.22;;
55007;SDS011;40902;45.116;21.296;2024-02-14T13:17:13;10.18;;;6.93;;
55007;SDS011;40902;45.116;21.296;2024-02-14T13:19:39;11.00;;;7.07;;
55007;SDS011;40902;45.116;21.296;2024-02-14T13:22:07;8.95;;;6.75;;
55007;SDS011;40902;45.116;21.296;2024-02-14T13:24:34;11.82;;;8.88;;
55007;SDS011;40902;45.116;21.296;2024-02-14T13:27:00;10.68;;;7.03;;
55007;SDS011;40902;45.116;21.296;2024-02-14T13:29:25;9.15;;;7.10;;
55007;SDS011;40902;45.116;21.296;2024-02-14T13:31:52;11.90;;;7.50;;
55007;SDS011;40902;45.116;21.296;2024-02-14T13:34:17;12.10;;;7.75;;
55007;SDS011;40902;45.116;21.296;2024-02-14T13:36:46;11.68;;;7.55;;
55007;SDS011;40902;45.116;21.296;2024-02-14T13:39:13;10.48;;;7.43;;
55007;SDS011;40902;45.116;21.296;2024-02-14T13:41:39;15.30;;;7.85;;
55007;SDS011;40902;45.116;21.296;2024-02-14T13:44:09;10.90;;;7.22;;
55007;SDS011;40902;45.116;21.296;2024-02-14T13:46:35;12.63;;;8.00;;
55007;SDS011;40902;45.116;21.296;2024-02-14T13:49:02;11.40;;;6.65;;
55007;SDS011;40902;45.116;21.296;2024-02-14T13:51:28;11.73;;;6.88;;
55007;SDS011;40902;45.116;21.296;2024-02-14T13:53:54;7.75;;;6.47;;
55007;SDS011;40902;45.116;21.296;2024-02-14T13:56:20;10.48;;;6.57;;
55007;SDS011;40902;45.116;21.296;2024-02-14T13:58:50;11.50;;;7.28;;
55007;SDS011;40902;45.116;21.296;2024-02-14T14:01:15;15.90;;;9.15;;
55007;SDS011;40902;45.116;21.296;2024-02-14T14:03:42;13.85;;;8.70;;
55007;SDS011;40902;45.116;21.296;2024-02-14T14:06:08;10.43;;;7.30;;
55007;SDS011;40902;45.116;21.296;2024-02-14T14:08:34;11.18;;;7.50;;
55007;SDS011;40902;45.116;21.296;2024-02-14T14:11:03;11.82;;;8.57;;
55007;SDS011;40902;45.116;21.296;2024-02-14T14:13:29;12.27;;;8.68;;
55007;SDS011;40902;45.116;21.296;2024-02-14T14:15:58;11.90;;;8.70;;
55007;SDS011;40902;45.116;21.296;2024-02-14T14:18:24;10.55;;;6.85;;
55007;SDS011;40902;45.116;21.296;2024-02-14T14:20:50;14.30;;;7.03;;
55007;SDS011;40902;45.116;21.296;2024-02-14T14:23:16;10.63;;;7.65;;